Time;durP1;ratioP1;P1;durP2;ratioP2;P2;SDS_P1;SDS_P2;PMS_P1;PMS_P2;Temp;Humidity;BMP_temperature;BMP_pressure;BME280_temperature;BME280_humidity;BME280_pressure;Samples;Min_cycle;Max_cycle;Signal;HPM_P1;HPM_P2
2023/04/14 00:01:14;;;;;;;12.60;3.40;;;7.90;99.90;;;;;;7299443;19;20210;-82
2023/04/14 00:03:41;;;;;;;9.43;2.70;;;7.90;99.90;;;;;;7293523;19;20195;-82
2023/04/14 00:06:06;;;;;;;9.57;2.90;;;8.00;99.90;;;;;;7292694;19;20191;-82
2023/04/14 00:08:32;;;;;;;11.07;3.07;;;8.00;99.90;;;;;;7291261;19;20581;-82
2023/04/14 00:10:58;;;;;;;13.63;2.70;;;7.90;99.90;;;;;;7289695;19;20673;-81
2023/04/14 00:13:23;;;;;;;9.93;2.87;;;8.00;99.90;;;;;;7291247;19;20185;-82
2023/04/14 00:15:49;;;;;;;8.30;2.70;;;8.00;99.90;;;;;;7289277;19;20191;-82
2023/04/14 00:18:15;;;;;;;12.70;2.40;;;8.00;99.90;;;;;;7290390;19;20200;-81
2023/04/14 00:20:40;;;;;;;9.57;2.70;;;8.00;99.90;;;;;;7312333;19;20557;-82
2023/04/14 00:23:06;;;;;;;9.00;2.93;;;8.10;99.90;;;;;;7285975;19;20519;-81
2023/04/14 00:25:35;;;;;;;5.43;2.23;;;8.10;99.90;;;;;;7288856;19;20198;-82
2023/04/14 00:28:01;;;;;;;7.63;2.50;;;8.10;99.90;;;;;;7287493;19;20191;-82
2023/04/14 00:30:26;;;;;;;10.97;2.70;;;8.00;99.90;;;;;;7288440;19;20534;-82
2023/04/14 00:32:52;;;;;;;9.63;2.33;;;8.00;99.90;;;;;;7289743;19;20192;-82
2023/04/14 00:35:18;;;;;;;11.27;2.50;;;8.00;99.90;;;;;;7290000;19;20185;-81
2023/04/14 00:37:44;;;;;;;9.47;2.60;;;8.00;99.90;;;;;;7288751;19;20173;-81
2023/04/14 00:40:10;;;;;;;13.73;3.13;;;8.00;99.90;;;;;;7312059;19;20192;-81
2023/04/14 00:42:46;;;;;;;9.63;2.37;;;8.00;99.90;;;;;;7288943;19;20201;-81
2023/04/14 00:45:13;;;;;;;9.77;2.60;;;7.90;99.90;;;;;;7281611;19;20633;-81
2023/04/14 00:47:46;;;;;;;12.50;2.47;;;7.70;99.90;;;;;;7311397;19;20184;-81
2023/04/14 00:50:17;;;;;;;10.17;2.40;;;7.70;99.90;;;;;;7289889;19;20199;-82
2023/04/14 00:52:45;;;;;;;10.17;2.50;;;7.70;99.90;;;;;;7275325;19;20208;-80
2023/04/14 00:55:13;;;;;;;6.83;2.03;;;7.70;99.90;;;;;;7311462;19;20283;-81
2023/04/14 00:57:39;;;;;;;10.00;2.83;;;7.60;99.90;;;;;;7288501;19;20213;-81
2023/04/14 01:00:06;;;;;;;11.40;2.67;;;7.60;99.90;;;;;;7289556;19;20205;-81
2023/04/14 01:02:33;;;;;;;8.93;2.37;;;7.60;99.90;;;;;;7291246;19;20259;-83
2023/04/14 01:04:58;;;;;;;7.57;2.27;;;7.60;99.90;;;;;;7288464;19;20220;-82
2023/04/14 01:07:27;;;;;;;9.03;2.30;;;7.60;99.90;;;;;;7286439;19;20205;-81
2023/04/14 01:09:57;;;;;;;10.60;2.30;;;7.60;99.90;;;;;;7285581;19;20271;-81
2023/04/14 01:12:37;;;;;;;9.13;2.50;;;7.70;99.90;;;;;;7286450;19;20670;-82
2023/04/14 01:15:21;;;;;;;8.43;2.50;;;7.70;99.90;;;;;;7287273;19;20195;-82
2023/04/14 01:17:55;;;;;;;10.37;2.57;;;7.60;99.90;;;;;;7185462;19;2005038;-81
2023/04/14 01:20:33;;;;;;;7.50;2.00;;;7.50;99.90;;;;;;7286030;19;20191;-81
2023/04/14 01:23:13;;;;;;;8.17;2.23;;;7.30;99.90;;;;;;7286751;19;20293;-82
2023/04/14 01:26:06;;;;;;;8.17;2.10;;;7.00;99.90;;;;;;7286387;19;20664;-82
2023/04/14 01:28:54;;;;;;;8.53;2.10;;;6.80;99.90;;;;;;7183414;19;2004573;-82
2023/04/14 01:31:40;;;;;;;8.73;2.40;;;6.80;99.90;;;;;;7182221;19;2004459;-82
2023/04/14 01:34:13;;;;;;;9.23;2.77;;;6.90;99.90;;;;;;7285010;19;20210;-82
2023/04/14 01:36:46;;;;;;;12.07;2.60;;;6.80;99.90;;;;;;7287202;19;20201;-82
2023/04/14 01:39:19;;;;;;;8.07;2.60;;;6.80;99.90;;;;;;7268865;19;20200;-81
2023/04/14 01:41:51;;;;;;;11.00;2.87;;;6.70;99.90;;;;;;7286921;19;20322;-81
2023/04/14 01:44:20;;;;;;;13.47;2.53;;;6.70;99.90;;;;;;7286611;19;20212;-82
2023/04/14 01:46:51;;;;;;;8.60;2.80;;;6.60;99.90;;;;;;7285312;19;20196;-80
2023/04/14 01:49:20;;;;;;;10.40;2.90;;;6.60;99.90;;;;;;7285353;19;20196;-82
2023/04/14 01:51:47;;;;;;;9.10;2.83;;;6.50;99.90;;;;;;7285354;19;20200;-81
2023/04/14 01:54:15;;;;;;;10.13;2.70;;;6.50;99.90;;;;;;7295708;19;20197;-81
2023/04/14 01:56:42;;;;;;;8.30;2.70;;;6.50;99.90;;;;;;7309595;19;20187;-82
2023/04/14 01:59:11;;;;;;;12.00;3.13;;;6.60;99.90;;;;;;7285940;19;20193;-81
2023/04/14 02:01:39;;;;;;;11.20;3.50;;;6.60;99.90;;;;;;7285719;19;20181;-81
2023/04/14 02:04:06;;;;;;;11.90;3.10;;;6.60;99.90;;;;;;7285522;19;20181;-81
2023/04/14 02:06:35;;;;;;;12.80;3.37;;;6.40;99.90;;;;;;7286652;19;20193;-82
2023/04/14 02:09:09;;;;;;;9.80;2.80;;;6.30;99.90;;;;;;7284906;19;20279;-82
2023/04/14 02:11:36;;;;;;;13.47;3.30;;;6.20;99.90;;;;;;7285296;19;20196;-81
2023/04/14 02:14:05;;;;;;;9.20;3.00;;;6.10;99.90;;;;;;7285801;19;20718;-81
2023/04/14 02:16:32;;;;;;;9.47;2.90;;;6.00;99.90;;;;;;7285254;19;20602;-81
2023/04/14 02:19:01;;;;;;;9.77;3.27;;;6.00;99.90;;;;;;7283672;19;20253;-81
2023/04/14 02:21:28;;;;;;;9.77;3.07;;;5.80;99.90;;;;;;7285386;19;20192;-82
2023/04/14 02:23:54;;;;;;;14.00;3.33;;;5.80;99.90;;;;;;7285013;19;20191;-81
2023/04/14 02:26:25;;;;;;;12.30;3.17;;;5.70;99.90;;;;;;7285853;19;20735;-81
2023/04/14 02:29:01;;;;;;;12.87;3.33;;;5.50;99.90;;;;;;7286333;19;20541;-81
2023/04/14 02:31:29;;;;;;;9.77;3.20;;;5.40;99.90;;;;;;7282920;19;20194;-81
2023/04/14 02:33:56;;;;;;;11.17;3.20;;;5.20;99.90;;;;;;7285223;19;20194;-80
2023/04/14 02:36:52;;;;;;;8.83;2.77;;;5.10;99.90;;;;;;7283768;19;20188;-81
2023/04/14 02:39:28;;;;;;;9.30;3.33;;;5.10;99.90;;;;;;7182016;19;2004619;-82
2023/04/14 02:42:06;;;;;;;12.33;3.10;;;5.10;99.90;;;;;;7285078;19;20181;-81
2023/04/14 02:44:37;;;;;;;12.23;3.30;;;5.10;99.90;;;;;;7283038;19;20205;-81
2023/04/14 02:47:06;;;;;;;9.97;3.27;;;5.10;99.90;;;;;;7282227;19;20188;-81
2023/04/14 02:49:39;;;;;;;10.00;3.37;;;5.20;99.90;;;;;;7284350;19;20274;-82
2023/04/14 02:52:09;;;;;;;10.27;3.40;;;5.20;99.90;;;;;;7283006;19;20802;-81
2023/04/14 02:54:36;;;;;;;9.77;3.53;;;5.30;99.90;;;;;;7283560;19;20211;-81
2023/04/14 02:57:03;;;;;;;11.77;2.93;;;5.30;99.90;;;;;;7283658;19;20349;-81
2023/04/14 02:59:32;;;;;;;10.50;3.90;;;5.30;99.90;;;;;;7283557;19;20196;-82
2023/04/14 03:02:04;;;;;;;12.43;3.60;;;5.20;99.90;;;;;;7285620;19;20207;-81
2023/04/14 03:04:36;;;;;;;9.67;3.03;;;5.20;99.90;;;;;;7282261;19;20275;-80
2023/04/14 03:07:08;;;;;;;10.47;2.83;;;5.20;99.90;;;;;;7285044;19;20190;-81
2023/04/14 03:09:34;;;;;;;10.03;2.90;;;5.20;99.90;;;;;;7285300;19;20186;-81
2023/04/14 03:12:04;;;;;;;13.00;3.40;;;5.10;99.90;;;;;;7284366;19;20277;-81
2023/04/14 03:14:31;;;;;;;9.53;3.10;;;5.20;99.90;;;;;;7287975;19;20193;-82
2023/04/14 03:16:58;;;;;;;16.30;3.47;;;5.20;99.90;;;;;;7283235;19;20195;-81
2023/04/14 03:19:26;;;;;;;11.53;3.33;;;5.30;99.90;;;;;;7284782;19;20185;-82
2023/04/14 03:21:54;;;;;;;12.90;2.90;;;5.30;99.90;;;;;;7288374;19;20209;-81
2023/04/14 03:24:23;;;;;;;12.80;2.97;;;5.30;99.90;;;;;;7282950;19;20189;-81
2023/04/14 03:26:56;;;;;;;11.87;3.50;;;5.30;99.90;;;;;;7284689;19;20193;-81
2023/04/14 03:29:26;;;;;;;10.33;2.87;;;5.30;99.90;;;;;;7287654;19;20185;-81
2023/04/14 03:31:55;;;;;;;8.97;2.77;;;5.30;99.90;;;;;;7283382;19;20181;-81
2023/04/14 03:34:25;;;;;;;10.03;2.97;;;5.20;99.90;;;;;;7286719;19;20181;-81
2023/04/14 03:36:56;;;;;;;10.23;2.93;;;5.20;99.90;;;;;;7283667;19;20506;-81
2023/04/14 03:39:28;;;;;;;9.47;3.00;;;5.10;99.90;;;;;;7284135;19;20677;-82
2023/04/14 03:41:55;;;;;;;10.77;2.90;;;5.10;99.90;;;;;;7285723;19;20252;-81
2023/04/14 03:44:22;;;;;;;10.13;3.30;;;5.00;99.90;;;;;;7282046;19;20180;-81
2023/04/14 03:46:50;;;;;;;8.63;3.40;;;5.00;99.90;;;;;;7283923;19;20197;-82
2023/04/14 03:49:17;;;;;;;12.13;2.87;;;5.10;99.90;;;;;;7281554;19;20557;-81
2023/04/14 03:51:47;;;;;;;11.80;3.17;;;5.10;99.90;;;;;;7283547;19;20239;-81
2023/04/14 03:54:15;;;;;;;11.37;2.97;;;5.00;99.90;;;;;;7294946;19;20649;-81
2023/04/14 03:56:44;;;;;;;9.50;3.10;;;5.00;99.90;;;;;;7305106;19;20192;-82
2023/04/14 03:59:15;;;;;;;9.77;2.93;;;5.00;99.90;;;;;;7289964;19;20253;-81
2023/04/14 04:01:43;;;;;;;9.03;3.20;;;5.00;99.90;;;;;;7291572;19;20191;-81
2023/04/14 04:04:10;;;;;;;11.73;3.33;;;5.10;99.90;;;;;;7289177;19;20184;-81
2023/04/14 04:06:36;;;;;;;10.90;3.00;;;5.00;99.90;;;;;;7289830;19;20184;-82
2023/04/14 04:09:04;;;;;;;9.63;3.20;;;5.00;99.90;;;;;;7287338;19;20205;-81
2023/04/14 04:11:32;;;;;;;11.10;3.10;;;5.00;99.90;;;;;;7289725;19;20253;-82
2023/04/14 04:14:00;;;;;;;8.57;2.80;;;5.00;99.90;;;;;;7290837;19;20210;-81
2023/04/14 04:16:29;;;;;;;12.13;3.27;;;5.00;99.90;;;;;;7289956;19;20193;-81
2023/04/14 04:18:59;;;;;;;10.63;3.10;;;5.00;99.90;;;;;;7295042;19;20599;-82
2023/04/14 04:21:32;;;;;;;12.63;3.67;;;4.90;99.90;;;;;;7297186;19;20204;-82
2023/04/14 04:24:00;;;;;;;10.27;2.90;;;4.80;99.90;;;;;;7292247;19;20193;-82
2023/04/14 04:26:28;;;;;;;15.03;3.37;;;4.70;99.90;;;;;;7290630;19;20185;-81
2023/04/14 04:28:56;;;;;;;10.53;3.60;;;4.60;99.90;;;;;;7289557;19;20527;-81
2023/04/14 04:31:26;;;;;;;13.67;4.23;;;4.50;99.90;;;;;;7289149;19;20217;-81
2023/04/14 04:33:52;;;;;;;10.63;3.30;;;4.40;99.90;;;;;;7289109;19;20189;-81
2023/04/14 04:36:19;;;;;;;11.83;3.83;;;4.40;99.90;;;;;;7287963;19;20602;-81
2023/04/14 04:38:48;;;;;;;11.40;3.67;;;4.40;99.90;;;;;;7287567;19;20181;-81
2023/04/14 04:41:24;;;;;;;10.87;3.43;;;4.50;99.90;;;;;;7297069;19;20177;-81
2023/04/14 04:43:51;;;;;;;13.80;3.70;;;4.60;99.90;;;;;;7291389;19;20180;-81
2023/04/14 04:46:38;;;;;;;14.23;3.67;;;4.60;99.90;;;;;;7285927;19;20640;-81
2023/04/14 04:49:04;;;;;;;11.37;3.60;;;4.60;99.90;;;;;;7288464;19;20177;-81
2023/04/14 04:51:30;;;;;;;13.57;3.50;;;4.60;99.90;;;;;;7287277;19;20644;-81
2023/04/14 04:53:56;;;;;;;12.10;3.80;;;4.60;99.90;;;;;;7289521;19;20212;-82
2023/04/14 04:56:21;;;;;;;12.90;3.70;;;4.70;99.90;;;;;;7290286;19;20216;-81
2023/04/14 04:58:47;;;;;;;14.57;4.40;;;4.60;99.90;;;;;;7289426;19;20197;-81
2023/04/14 05:01:18;;;;;;;13.67;4.37;;;4.80;99.90;;;;;;7305352;19;20826;-82
2023/04/14 05:03:44;;;;;;;14.40;4.00;;;4.80;99.90;;;;;;7299463;19;20220;-80
2023/04/14 05:06:10;;;;;;;13.03;3.77;;;4.90;99.90;;;;;;7309103;19;20185;-82
2023/04/14 05:08:36;;;;;;;12.00;3.60;;;4.90;99.90;;;;;;7284940;19;20217;-82
2023/04/14 05:11:02;;;;;;;14.20;4.00;;;5.00;99.90;;;;;;7286209;19;20189;-81
2023/04/14 05:13:27;;;;;;;15.00;4.40;;;5.00;99.90;;;;;;7287558;19;20199;-82
2023/04/14 05:16:10;;;;;;;14.50;3.77;;;5.00;99.90;;;;;;7286206;19;20192;-81
2023/04/14 05:18:36;;;;;;;10.77;3.70;;;5.10;99.90;;;;;;7287608;19;20648;-82
2023/04/14 05:21:03;;;;;;;12.30;3.70;;;5.10;99.90;;;;;;7286412;19;20200;-81
2023/04/14 05:23:31;;;;;;;12.93;3.90;;;5.20;99.90;;;;;;7286573;19;20189;-81
2023/04/14 05:25:57;;;;;;;10.50;3.40;;;5.40;99.90;;;;;;7286600;19;20264;-81
2023/04/14 05:28:23;;;;;;;12.03;4.37;;;5.50;99.90;;;;;;7285718;19;20338;-81
2023/04/14 05:30:49;;;;;;;13.03;3.50;;;5.60;99.90;;;;;;7286327;19;20189;-81
2023/04/14 05:33:15;;;;;;;10.70;3.53;;;5.70;99.90;;;;;;7289040;19;20529;-81
2023/04/14 05:35:43;;;;;;;11.87;3.13;;;5.90;99.90;;;;;;7308758;19;20193;-82
2023/04/14 05:38:09;;;;;;;10.80;3.33;;;6.60;99.90;;;;;;7285497;19;20218;-79
2023/04/14 05:40:36;;;;;;;13.30;3.40;;;7.40;99.90;;;;;;7282616;19;20672;-82
2023/04/14 05:43:02;;;;;;;11.17;3.70;;;8.20;99.90;;;;;;7286068;19;20208;-81
2023/04/14 05:45:28;;;;;;;13.23;4.10;;;8.70;99.90;;;;;;7285761;19;20262;-80
2023/04/14 05:47:53;;;;;;;12.10;3.90;;;9.20;99.90;;;;;;7285635;19;20195;-81
2023/04/14 05:50:21;;;;;;;11.13;4.00;;;9.00;99.90;;;;;;7285940;19;20185;-82
2023/04/14 05:52:47;;;;;;;11.50;3.70;;;8.70;99.90;;;;;;7302486;19;20207;-79
2023/04/14 05:55:15;;;;;;;11.20;4.27;;;8.80;99.90;;;;;;7306402;19;20184;-79
2023/04/14 05:57:41;;;;;;;11.80;3.93;;;8.70;99.90;;;;;;7307640;19;20712;-81
2023/04/14 06:00:08;;;;;;;10.00;3.43;;;8.40;99.90;;;;;;7284776;19;20661;-81
2023/04/14 06:02:41;;;;;;;8.70;3.53;;;8.00;99.90;;;;;;7286340;19;20200;-80
2023/04/14 06:05:07;;;;;;;13.83;4.07;;;7.70;99.90;;;;;;7283946;19;20187;-80
2023/04/14 06:07:33;;;;;;;10.87;3.77;;;7.50;99.90;;;;;;7284938;19;20207;-80
2023/04/14 06:09:59;;;;;;;11.93;3.73;;;7.40;99.90;;;;;;7284885;19;20185;-79
2023/04/14 06:12:25;;;;;;;11.50;4.10;;;7.20;99.90;;;;;;7286188;19;20202;-79
2023/04/14 06:14:51;;;;;;;12.27;3.33;;;7.20;99.90;;;;;;7285446;19;20654;-80
2023/04/14 06:17:16;;;;;;;9.43;3.70;;;7.40;99.90;;;;;;7284071;19;20194;-79
2023/04/14 06:19:42;;;;;;;12.43;3.83;;;7.40;99.90;;;;;;7307352;19;20193;-80
2023/04/14 06:22:08;;;;;;;14.63;3.90;;;7.50;99.90;;;;;;7281869;19;20602;-80
2023/04/14 06:24:34;;;;;;;10.53;3.53;;;7.70;99.90;;;;;;7285124;19;20230;-80
2023/04/14 06:27:02;;;;;;;12.20;3.50;;;8.00;99.90;;;;;;7285305;19;20628;-79
2023/04/14 06:29:29;;;;;;;11.53;3.30;;;8.50;99.90;;;;;;7284416;19;20191;-80
2023/04/14 06:31:56;;;;;;;11.10;3.23;;;9.20;99.90;;;;;;7284746;19;20192;-79
2023/04/14 06:34:22;;;;;;;11.57;3.37;;;9.80;99.90;;;;;;7284126;19;20268;-80
2023/04/14 06:36:48;;;;;;;10.63;3.33;;;10.50;99.90;;;;;;7284045;19;20178;-81
2023/04/14 06:39:14;;;;;;;13.77;3.47;;;11.00;99.90;;;;;;7294909;19;20217;-78
2023/04/14 06:41:40;;;;;;;11.13;3.20;;;11.30;99.90;;;;;;7303007;19;20623;-79
2023/04/14 06:44:06;;;;;;;11.97;3.30;;;12.20;99.90;;;;;;7286315;19;20279;-80
2023/04/14 06:46:34;;;;;;;8.50;3.30;;;12.90;99.90;;;;;;7284240;19;20190;-79
2023/04/14 06:49:01;;;;;;;9.80;3.73;;;13.00;99.90;;;;;;7285268;19;20192;-79
2023/04/14 06:51:26;;;;;;;10.10;3.43;;;14.00;99.90;;;;;;7282699;19;20555;-79
2023/04/14 06:53:52;;;;;;;12.33;3.43;;;14.40;99.90;;;;;;7277437;19;20196;-79
2023/04/14 06:56:18;;;;;;;8.77;3.67;;;15.00;99.90;;;;;;7280764;19;20190;-79
2023/04/14 06:58:43;;;;;;;9.53;3.00;;;16.10;99.90;;;;;;7297744;19;20188;-79
2023/04/14 07:01:09;;;;;;;8.87;3.07;;;16.90;99.90;;;;;;7297332;19;20191;-80
2023/04/14 07:03:35;;;;;;;11.33;3.73;;;16.90;99.90;;;;;;7284334;19;20221;-79
2023/04/14 07:06:03;;;;;;;10.90;2.80;;;18.60;99.90;;;;;;7281694;19;20589;-81
2023/04/14 07:08:31;;;;;;;10.60;2.87;;;18.50;99.90;;;;;;7282700;19;20207;-79
2023/04/14 07:11:01;;;;;;;9.07;3.07;;;18.40;99.90;;;;;;7283694;19;21927;-79
2023/04/14 07:13:28;;;;;;;8.13;2.93;;;18.50;99.90;;;;;;7281540;19;20189;-79
2023/04/14 07:15:54;;;;;;;10.13;3.03;;;18.70;99.90;;;;;;7284531;19;20620;-80
2023/04/14 07:18:20;;;;;;;10.23;2.93;;;19.20;99.90;;;;;;7282141;19;20215;-78
2023/04/14 07:20:45;;;;;;;8.00;2.57;;;18.80;99.90;;;;;;7282508;19;20198;-78
2023/04/14 07:23:11;;;;;;;8.87;2.50;;;18.40;99.90;;;;;;7305893;19;20205;-79
2023/04/14 07:25:37;;;;;;;9.00;2.50;;;19.70;99.90;;;;;;7285951;19;20273;-79
2023/04/14 07:28:03;;;;;;;11.47;2.70;;;21.80;99.90;;;;;;7284549;19;25094;-79
2023/04/14 07:30:30;;;;;;;7.07;2.67;;;22.20;99.90;;;;;;7286385;19;20266;-79
2023/04/14 07:32:56;;;;;;;8.07;2.47;;;22.90;99.90;;;;;;7287254;19;20280;-79
2023/04/14 07:35:25;;;;;;;7.87;2.50;;;22.80;99.10;;;;;;7289234;19;20202;-79
2023/04/14 07:37:51;;;;;;;9.67;2.40;;;22.50;98.10;;;;;;7289759;19;20756;-78
2023/04/14 07:40:17;;;;;;;7.33;2.23;;;22.30;98.00;;;;;;7287676;19;20192;-79
2023/04/14 07:42:43;;;;;;;8.07;2.40;;;21.40;98.40;;;;;;7311060;19;20363;-80
2023/04/14 07:45:09;;;;;;;7.77;2.10;;;20.80;99.90;;;;;;7291298;19;20561;-80
2023/04/14 07:47:36;;;;;;;7.67;1.97;;;21.40;99.50;;;;;;7287772;19;20188;-79
2023/04/14 07:50:02;;;;;;;6.47;1.90;;;21.60;99.70;;;;;;7287729;19;20209;-79
2023/04/14 07:52:28;;;;;;;5.83;1.80;;;22.20;97.00;;;;;;7287700;19;20690;-81
2023/04/14 07:54:54;;;;;;;6.40;2.13;;;20.70;98.60;;;;;;7285286;19;20212;-81
2023/04/14 07:57:21;;;;;;;8.87;2.00;;;19.90;99.90;;;;;;7288962;19;20299;-80
2023/04/14 07:59:46;;;;;;;5.97;2.00;;;19.10;99.90;;;;;;7287759;19;20832;-81
2023/04/14 08:02:12;;;;;;;6.43;1.50;;;20.20;99.90;;;;;;7311331;19;20187;-81
2023/04/14 08:04:38;;;;;;;5.20;1.70;;;19.60;99.90;;;;;;7288069;19;20285;-81
2023/04/14 08:07:03;;;;;;;7.70;2.03;;;18.90;99.90;;;;;;7287552;19;20204;-81
2023/04/14 08:09:29;;;;;;;6.47;1.80;;;18.40;99.90;;;;;;7286971;19;20191;-81
2023/04/14 08:11:56;;;;;;;6.30;1.60;;;19.60;99.90;;;;;;7288046;19;20202;-81
2023/04/14 08:14:22;;;;;;;6.97;1.80;;;20.30;99.90;;;;;;7288716;19;20214;-81
2023/04/14 08:16:48;;;;;;;4.80;1.60;;;21.20;99.90;;;;;;7287574;19;20259;-78
2023/04/14 08:19:14;;;;;;;4.03;1.50;;;22.40;97.00;;;;;;7306568;19;20192;-78
2023/04/14 08:21:40;;;;;;;5.97;1.60;;;21.10;97.80;;;;;;7302708;19;20192;-78
2023/04/14 08:24:06;;;;;;;4.90;1.67;;;22.10;97.90;;;;;;7288499;19;20220;-79
2023/04/14 08:26:31;;;;;;;5.83;1.70;;;24.30;94.70;;;;;;7286722;19;20200;-78
2023/04/14 08:28:57;;;;;;;5.87;1.40;;;23.70;92.70;;;;;;7287781;19;20197;-80
2023/04/14 08:31:24;;;;;;;4.70;1.33;;;22.70;92.20;;;;;;7287963;19;20304;-77
2023/04/14 08:33:51;;;;;;;4.90;1.67;;;22.40;94.20;;;;;;7284896;19;20207;-79
2023/04/14 08:36:18;;;;;;;6.00;1.73;;;22.60;94.10;;;;;;7287446;19;20191;-79
2023/04/14 08:38:44;;;;;;;7.03;1.83;;;23.40;92.30;;;;;;7305161;19;20197;-76
2023/04/14 08:41:14;;;;;;;4.53;1.43;;;23.80;92.50;;;;;;7305516;19;20216;-79
2023/04/14 08:43:40;;;;;;;3.60;1.17;;;23.60;92.00;;;;;;7287220;19;20200;-78
2023/04/14 08:46:12;;;;;;;4.53;1.47;;;24.60;90.30;;;;;;7285918;19;20236;-78
2023/04/14 08:48:38;;;;;;;7.33;2.10;;;24.60;90.30;;;;;;7288115;19;20193;-78
2023/04/14 08:51:16;;;;;;;7.33;1.80;;;25.10;86.40;;;;;;7287678;19;20202;-78
2023/04/14 08:53:44;;;;;;;6.07;1.93;;;24.60;87.40;;;;;;7288142;19;20197;-79
2023/04/14 08:56:12;;;;;;;7.20;1.90;;;22.60;89.00;;;;;;7287623;19;20189;-79
2023/04/14 08:58:39;;;;;;;7.93;1.50;;;21.00;91.90;;;;;;7286803;19;20193;-79
2023/04/14 09:01:06;;;;;;;6.33;1.87;;;20.90;92.00;;;;;;7288044;19;20538;-79
2023/04/14 09:03:32;;;;;;;8.37;1.97;;;21.80;91.80;;;;;;7286437;19;20656;-79
2023/04/14 09:05:59;;;;;;;5.23;1.47;;;21.80;91.50;;;;;;7284486;19;20903;-79
2023/04/14 09:08:25;;;;;;;7.67;1.70;;;21.40;91.80;;;;;;7286115;19;20197;-79
2023/04/14 09:10:50;;;;;;;6.93;1.70;;;21.20;92.20;;;;;;7286023;19;20255;-78
2023/04/14 09:13:19;;;;;;;5.13;1.40;;;21.20;92.50;;;;;;7284793;19;20195;-79
2023/04/14 09:15:45;;;;;;;7.80;1.60;;;21.70;90.90;;;;;;7293499;19;20694;-79
2023/04/14 09:18:11;;;;;;;6.17;1.47;;;22.30;90.40;;;;;;7311377;19;20189;-82
2023/04/14 09:20:37;;;;;;;8.20;1.57;;;22.00;90.50;;;;;;7285940;19;20504;-77
2023/04/14 09:23:03;;;;;;;4.30;1.17;;;22.30;90.60;;;;;;7286265;19;20300;-77
2023/04/14 09:25:29;;;;;;;8.00;1.40;;;22.40;90.40;;;;;;7284874;19;20199;-77
2023/04/14 09:27:55;;;;;;;6.30;1.67;;;23.30;86.90;;;;;;7284441;19;20192;-77
2023/04/14 09:30:21;;;;;;;5.70;1.20;;;23.20;86.50;;;;;;7285173;19;20198;-77
2023/04/14 09:32:55;;;;;;;3.67;1.30;;;21.40;88.80;;;;;;7282537;19;20213;-77
2023/04/14 09:35:21;;;;;;;5.80;2.10;;;21.30;90.60;;;;;;7284958;19;20212;-76
2023/04/14 09:37:47;;;;;;;6.03;1.30;;;21.00;90.20;;;;;;7284931;19;20671;-76
2023/04/14 09:40:30;;;;;;;11.03;4.93;;;21.70;90.40;;;;;;7306093;19;20187;-79
2023/04/14 09:42:56;;;;;;;5.23;1.27;;;21.70;90.60;;;;;;7184404;19;2004533;-80
2023/04/14 09:45:39;;;;;;;5.73;1.30;;;21.60;89.50;;;;;;7283788;19;20177;-79
2023/04/14 09:48:06;;;;;;;5.07;1.20;;;20.90;89.20;;;;;;7285957;19;20199;-79
2023/04/14 09:50:32;;;;;;;6.70;2.30;;;20.40;90.80;;;;;;7284825;19;20254;-79
2023/04/14 09:53:03;;;;;;;7.70;1.67;;;20.20;91.40;;;;;;7284919;19;20190;-79
2023/04/14 09:55:29;;;;;;;6.63;1.50;;;20.20;91.50;;;;;;7287995;19;20273;-80
2023/04/14 09:57:55;;;;;;;4.37;1.10;;;19.70;92.30;;;;;;7284768;19;20199;-80
2023/04/14 10:00:22;;;;;;;6.17;1.30;;;19.10;92.80;;;;;;7284049;19;20200;-80
2023/04/14 10:02:56;;;;;;;5.50;0.97;;;19.10;92.70;;;;;;7285181;19;20196;-80
2023/04/14 10:05:30;;;;;;;7.20;1.30;;;19.40;91.90;;;;;;7283535;19;20215;-80
2023/04/14 10:08:04;;;;;;;5.70;1.10;;;18.60;92.50;;;;;;7285318;19;20192;-81
2023/04/14 10:10:30;;;;;;;4.17;1.03;;;17.60;94.90;;;;;;7287105;19;20656;-79
2023/04/14 10:12:58;;;;;;;4.43;1.20;;;17.20;95.90;;;;;;7286797;19;20189;-80
2023/04/14 10:15:24;;;;;;;4.63;1.07;;;17.10;97.00;;;;;;7287598;19;20188;-80
2023/04/14 10:17:50;;;;;;;5.40;1.30;;;17.50;96.50;;;;;;7288604;19;20184;-79
2023/04/14 10:20:16;;;;;;;4.33;1.00;;;17.20;96.80;;;;;;7293163;19;20950;-80
2023/04/14 10:22:42;;;;;;;4.73;1.30;;;16.90;97.70;;;;;;7312978;19;20188;-80
2023/04/14 10:25:08;;;;;;;7.40;1.50;;;17.20;98.70;;;;;;7288169;19;20197;-81
2023/04/14 10:27:35;;;;;;;6.17;1.50;;;18.00;97.60;;;;;;7287988;19;20664;-80
2023/04/14 10:30:01;;;;;;;6.90;1.40;;;18.80;96.60;;;;;;7287726;19;20215;-80
2023/04/14 10:32:32;;;;;;;7.27;1.60;;;19.20;96.00;;;;;;7288437;19;20212;-80
2023/04/14 10:35:04;;;;;;;5.17;1.27;;;18.60;95.20;;;;;;7287019;19;20265;-82
2023/04/14 10:37:31;;;;;;;6.93;1.20;;;18.30;96.20;;;;;;7283819;19;20203;-79
2023/04/14 10:39:59;;;;;;;4.83;1.40;;;18.50;96.10;;;;;;7282601;19;20189;-79
2023/04/14 10:42:26;;;;;;;8.77;1.73;;;18.00;96.80;;;;;;7285333;19;20194;-79
2023/04/14 10:45:07;;;;;;;5.60;1.33;;;17.40;97.70;;;;;;7284122;19;20651;-79
2023/04/14 10:47:34;;;;;;;7.97;1.63;;;17.70;98.00;;;;;;7282690;19;20196;-79
2023/04/14 10:50:11;;;;;;;5.60;1.13;;;18.80;96.70;;;;;;7284983;19;20199;-80
2023/04/14 10:52:38;;;;;;;7.43;1.33;;;20.00;95.40;;;;;;7282625;19;20193;-79
2023/04/14 10:55:08;;;;;;;6.93;1.13;;;20.30;94.40;;;;;;7284258;19;20201;-80
2023/04/14 10:57:42;;;;;;;5.60;1.33;;;20.00;94.40;;;;;;7283776;19;20197;-80
2023/04/14 11:00:24;;;;;;;6.60;1.20;;;19.20;94.90;;;;;;7282933;19;20560;-79
2023/04/14 11:03:16;;;;;;;5.83;1.60;;;18.80;94.50;;;;;;7181905;19;2004455;-79
2023/04/14 11:05:50;;;;;;;4.53;1.30;;;19.30;94.50;;;;;;7283689;19;20256;-79
2023/04/14 11:08:35;;;;;;;6.03;1.20;;;18.40;95.20;;;;;;7267608;19;20203;-79
2023/04/14 11:11:05;;;;;;;6.10;1.10;;;18.30;96.20;;;;;;7279584;19;20201;-79
2023/04/14 11:13:33;;;;;;;4.87;1.13;;;19.30;94.70;;;;;;7283171;19;20191;-79
2023/04/14 11:16:07;;;;;;;4.53;1.07;;;19.60;94.20;;;;;;7283601;19;20192;-79
2023/04/14 11:18:37;;;;;;;4.67;1.20;;;19.70;94.00;;;;;;7281911;19;20196;-78
2023/04/14 11:21:15;;;;;;;3.77;0.80;;;18.70;93.80;;;;;;7283108;19;20201;-79
2023/04/14 11:23:42;;;;;;;5.83;0.97;;;17.60;95.90;;;;;;7282101;19;20617;-79
2023/04/14 11:26:09;;;;;;;4.07;1.00;;;17.30;96.50;;;;;;7282229;19;20358;-79
2023/04/14 11:28:37;;;;;;;5.23;1.10;;;18.00;96.70;;;;;;7283459;19;20198;-79
2023/04/14 11:31:05;;;;;;;5.73;0.90;;;19.80;95.40;;;;;;7281407;19;20187;-78
2023/04/14 11:33:36;;;;;;;5.00;0.87;;;21.00;92.80;;;;;;7296072;19;20204;-79
2023/04/14 11:36:04;;;;;;;3.37;0.90;;;20.50;93.50;;;;;;7283639;19;20213;-80
2023/04/14 11:38:30;;;;;;;3.37;0.73;;;20.70;92.20;;;;;;7282154;19;20217;-80
2023/04/14 11:40:56;;;;;;;5.67;1.13;;;21.50;91.40;;;;;;7280916;19;20206;-79
2023/04/14 11:43:23;;;;;;;4.43;0.80;;;21.20;91.50;;;;;;7281667;19;20200;-78
2023/04/14 11:45:51;;;;;;;4.23;0.70;;;19.90;91.20;;;;;;7282333;19;20189;-79
2023/04/14 11:48:18;;;;;;;4.07;0.80;;;19.00;93.20;;;;;;7282548;19;20555;-78
2023/04/14 11:50:45;;;;;;;4.23;0.80;;;18.70;94.00;;;;;;7303895;19;20196;-79
2023/04/14 11:53:12;;;;;;;4.83;0.70;;;18.80;94.30;;;;;;7283414;19;20197;-78
2023/04/14 11:55:43;;;;;;;2.57;0.80;;;19.60;93.40;;;;;;7280674;19;20192;-79
2023/04/14 11:58:09;;;;;;;3.53;0.80;;;20.10;92.70;;;;;;7281195;19;20226;-79
2023/04/14 12:00:35;;;;;;;4.83;0.90;;;20.60;91.70;;;;;;7282115;19;20201;-78
2023/04/14 12:03:02;;;;;;;3.50;0.80;;;21.50;90.00;;;;;;7283235;19;20223;-78
2023/04/14 12:05:30;;;;;;;3.47;0.80;;;22.50;89.20;;;;;;7279762;19;20200;-78
2023/04/14 12:08:04;;;;;;;6.70;0.90;;;22.70;86.30;;;;;;7282747;19;20196;-79
2023/04/14 12:10:30;;;;;;;3.93;0.80;;;22.20;84.10;;;;;;7279650;19;20204;-79
2023/04/14 12:13:13;;;;;;;5.07;0.93;;;22.50;84.80;;;;;;7282296;19;20193;-79
2023/04/14 12:15:40;;;;;;;3.30;0.70;;;22.20;87.10;;;;;;7280840;19;20195;-79
2023/04/14 12:18:16;;;;;;;2.43;0.77;;;23.60;87.20;;;;;;7283662;19;20182;-80
2023/04/14 12:20:44;;;;;;;2.83;0.70;;;23.60;80.30;;;;;;7288985;19;20209;-79
2023/04/14 12:23:09;;;;;;;4.03;0.73;;;23.30;82.20;;;;;;7288682;19;20294;-79
2023/04/14 12:25:35;;;;;;;2.73;0.60;;;23.30;81.50;;;;;;7287733;19;20206;-79
2023/04/14 12:28:04;;;;;;;3.33;0.80;;;22.80;79.10;;;;;;7286718;19;20196;-79
2023/04/14 12:30:31;;;;;;;3.63;0.90;;;21.50;84.70;;;;;;7288059;19;20181;-79
2023/04/14 12:32:57;;;;;;;3.00;0.60;;;22.30;83.20;;;;;;7287882;19;20193;-79
2023/04/14 12:35:23;;;;;;;4.43;0.80;;;21.50;82.50;;;;;;7285965;19;20193;-79
2023/04/14 12:37:50;;;;;;;4.03;1.03;;;21.20;86.00;;;;;;7287718;19;20198;-79
2023/04/14 12:40:17;;;;;;;2.83;0.80;;;20.70;85.70;;;;;;7295724;19;20228;-79
2023/04/14 12:42:48;;;;;;;2.33;0.80;;;19.60;88.60;;;;;;7315521;19;20204;-79
2023/04/14 12:45:15;;;;;;;2.53;0.80;;;18.40;89.90;;;;;;7288493;19;20659;-79
2023/04/14 12:47:51;;;;;;;2.97;0.60;;;17.90;91.70;;;;;;7289189;19;20185;-79
2023/04/14 12:50:27;;;;;;;4.27;0.67;;;17.30;92.10;;;;;;7268512;19;20726;-79
2023/04/14 12:52:54;;;;;;;5.60;0.93;;;17.10;93.50;;;;;;7288944;19;20196;-84
2023/04/14 12:55:28;;;;;;;2.40;0.60;;;17.10;93.40;;;;;;7288576;19;20195;-78